sensor_id;sensor_type;location;lat;lon;timestamp;temperature;humidity
29295;DHT22;16305;48.566;8.846;2022-10-29T00:01:43;13.60;99.90
29295;DHT22;16305;48.566;8.846;2022-10-29T00:04:08;13.50;99.90
29295;DHT22;16305;48.566;8.846;2022-10-29T00:06:34;13.40;99.90
29295;DHT22;16305;48.566;8.846;2022-10-29T00:09:00;13.50;99.90
29295;DHT22;16305;48.566;8.846;2022-10-29T00:11:25;13.60;99.90
29295;DHT22;16305;48.566;8.846;2022-10-29T00:13:54;13.60;99.90
29295;DHT22;16305;48.566;8.846;2022-10-29T00:16:22;13.50;99.90
29295;DHT22;16305;48.566;8.846;2022-10-29T00:18:48;13.40;99.90
29295;DHT22;16305;48.566;8.846;2022-10-29T00:21:16;13.40;99.90
29295;DHT22;16305;48.566;8.846;2022-10-29T00:23:42;13.70;99.90
29295;DHT22;16305;48.566;8.846;2022-10-29T00:26:09;13.60;99.90
29295;DHT22;16305;48.566;8.846;2022-10-29T00:28:35;13.50;99.90
29295;DHT22;16305;48.566;8.846;2022-10-29T00:31:05;13.40;99.90
29295;DHT22;16305;48.566;8.846;2022-10-29T00:33:31;13.40;99.90
29295;DHT22;16305;48.566;8.846;2022-10-29T00:36:09;13.40;99.90
29295;DHT22;16305;48.566;8.846;2022-10-29T00:38:35;13.40;99.90
29295;DHT22;16305;48.566;8.846;2022-10-29T00:41:02;13.40;99.90
29295;DHT22;16305;48.566;8.846;2022-10-29T00:43:28;13.40;99.90
29295;DHT22;16305;48.566;8.846;2022-10-29T00:45:56;13.30;99.90
29295;DHT22;16305;48.566;8.846;2022-10-29T00:48:25;13.20;99.90
29295;DHT22;16305;48.566;8.846;2022-10-29T00:50:52;13.30;99.90
29295;DHT22;16305;48.566;8.846;2022-10-29T00:53:23;13.20;99.90
29295;DHT22;16305;48.566;8.846;2022-10-29T00:55:50;13.20;99.90
29295;DHT22;16305;48.566;8.846;2022-10-29T00:58:15;13.20;99.90
29295;DHT22;16305;48.566;8.846;2022-10-29T01:00:42;13.10;99.90
29295;DHT22;16305;48.566;8.846;2022-10-29T01:03:09;13.10;99.90
29295;DHT22;16305;48.566;8.846;2022-10-29T01:05:35;13.10;99.90
29295;DHT22;16305;48.566;8.846;2022-10-29T01:08:01;13.00;99.90
29295;DHT22;16305;48.566;8.846;2022-10-29T01:22:23;13.10;99.90
29295;DHT22;16305;48.566;8.846;2022-10-29T01:35:38;13.30;99.90
29295;DHT22;16305;48.566;8.846;2022-10-29T01:40:43;13.40;99.90
29295;DHT22;16305;48.566;8.846;2022-10-29T01:43:44;13.50;99.90
29295;DHT22;16305;48.566;8.846;2022-10-29T01:46:38;13.20;99.90
29295;DHT22;16305;48.566;8.846;2022-10-29T01:49:19;13.10;99.90
29295;DHT22;16305;48.566;8.846;2022-10-29T01:51:48;13.10;99.90
29295;DHT22;16305;48.566;8.846;2022-10-29T01:54:14;13.10;99.90
29295;DHT22;16305;48.566;8.846;2022-10-29T01:56:39;13.10;99.90
29295;DHT22;16305;48.566;8.846;2022-10-29T01:59:08;13.20;99.90
29295;DHT22;16305;48.566;8.846;2022-10-29T02:07:36;13.30;99.90
29295;DHT22;16305;48.566;8.846;2022-10-29T02:10:05;13.30;99.90
29295;DHT22;16305;48.566;8.846;2022-10-29T02:12:39;13.30;99.90
29295;DHT22;16305;48.566;8.846;2022-10-29T02:18:08;13.30;99.90
29295;DHT22;16305;48.566;8.846;2022-10-29T02:20:34;13.30;99.90
29295;DHT22;16305;48.566;8.846;2022-10-29T02:23:00;13.30;99.90
29295;DHT22;16305;48.566;8.846;2022-10-29T02:25:26;13.40;99.90
29295;DHT22;16305;48.566;8.846;2022-10-29T02:27:52;13.40;99.90
29295;DHT22;16305;48.566;8.846;2022-10-29T02:30:17;13.40;99.90
29295;DHT22;16305;48.566;8.846;2022-10-29T02:32:43;13.50;99.90
29295;DHT22;16305;48.566;8.846;2022-10-29T02:35:09;13.40;99.90
29295;DHT22;16305;48.566;8.846;2022-10-29T02:37:35;13.20;99.90
29295;DHT22;16305;48.566;8.846;2022-10-29T02:40:01;13.10;99.90
29295;DHT22;16305;48.566;8.846;2022-10-29T02:42:26;13.10;99.90
29295;DHT22;16305;48.566;8.846;2022-10-29T02:44:52;13.20;99.90
29295;DHT22;16305;48.566;8.846;2022-10-29T02:47:18;13.30;99.90
29295;DHT22;16305;48.566;8.846;2022-10-29T02:49:43;13.30;99.90
29295;DHT22;16305;48.566;8.846;2022-10-29T02:52:09;13.30;99.90
29295;DHT22;16305;48.566;8.846;2022-10-29T02:54:34;13.20;99.90
29295;DHT22;16305;48.566;8.846;2022-10-29T02:57:00;13.10;99.90
29295;DHT22;16305;48.566;8.846;2022-10-29T02:59:25;13.10;99.90
29295;DHT22;16305;48.566;8.846;2022-10-29T03:01:51;13.00;99.90
29295;DHT22;16305;48.566;8.846;2022-10-29T03:04:16;12.90;99.90
29295;DHT22;16305;48.566;8.846;2022-10-29T03:06:42;12.90;99.90
29295;DHT22;16305;48.566;8.846;2022-10-29T03:09:08;12.80;99.90
29295;DHT22;16305;48.566;8.846;2022-10-29T03:11:33;12.80;99.90
29295;DHT22;16305;48.566;8.846;2022-10-29T03:13:59;12.70;99.90
29295;DHT22;16305;48.566;8.846;2022-10-29T03:16:24;12.80;99.90
29295;DHT22;16305;48.566;8.846;2022-10-29T03:18:50;12.70;99.90
29295;DHT22;16305;48.566;8.846;2022-10-29T03:21:15;12.80;99.90
29295;DHT22;16305;48.566;8.846;2022-10-29T03:23:41;12.70;99.90
29295;DHT22;16305;48.566;8.846;2022-10-29T03:26:08;12.80;99.90
29295;DHT22;16305;48.566;8.846;2022-10-29T03:28:33;12.70;99.90
29295;DHT22;16305;48.566;8.846;2022-10-29T03:30:59;12.70;99.90
29295;DHT22;16305;48.566;8.846;2022-10-29T03:33:25;12.70;99.90
29295;DHT22;16305;48.566;8.846;2022-10-29T03:36:02;12.70;99.90
29295;DHT22;16305;48.566;8.846;2022-10-29T03:38:30;12.80;99.90
29295;DHT22;16305;48.566;8.846;2022-10-29T03:40:55;12.80;99.90
29295;DHT22;16305;48.566;8.846;2022-10-29T03:43:21;12.80;99.90
29295;DHT22;16305;48.566;8.846;2022-10-29T03:45:53;12.90;99.90
29295;DHT22;16305;48.566;8.846;2022-10-29T03:48:20;12.90;99.90
29295;DHT22;16305;48.566;8.846;2022-10-29T03:51:00;13.00;99.90
29295;DHT22;16305;48.566;8.846;2022-10-29T03:53:26;13.00;99.90
29295;DHT22;16305;48.566;8.846;2022-10-29T03:55:53;12.90;99.90
29295;DHT22;16305;48.566;8.846;2022-10-29T03:58:19;12.90;99.90
29295;DHT22;16305;48.566;8.846;2022-10-29T04:00:59;12.90;99.90
29295;DHT22;16305;48.566;8.846;2022-10-29T04:03:26;12.90;99.90
29295;DHT22;16305;48.566;8.846;2022-10-29T04:05:52;12.90;99.90
29295;DHT22;16305;48.566;8.846;2022-10-29T04:08:18;12.80;99.90
29295;DHT22;16305;48.566;8.846;2022-10-29T04:10:48;12.80;99.90
29295;DHT22;16305;48.566;8.846;2022-10-29T04:13:14;12.80;99.90
29295;DHT22;16305;48.566;8.846;2022-10-29T04:15:41;12.90;99.90
29295;DHT22;16305;48.566;8.846;2022-10-29T04:18:07;12.90;99.90
29295;DHT22;16305;48.566;8.846;2022-10-29T04:20:33;13.00;99.90
29295;DHT22;16305;48.566;8.846;2022-10-29T04:22:59;13.00;99.90
29295;DHT22;16305;48.566;8.846;2022-10-29T04:25:24;13.10;99.90
29295;DHT22;16305;48.566;8.846;2022-10-29T04:27:53;13.10;99.90
29295;DHT22;16305;48.566;8.846;2022-10-29T04:30:19;13.30;99.90
29295;DHT22;16305;48.566;8.846;2022-10-29T04:32:45;13.40;99.90
29295;DHT22;16305;48.566;8.846;2022-10-29T04:35:10;13.50;99.90
29295;DHT22;16305;48.566;8.846;2022-10-29T04:37:36;13.50;99.90
29295;DHT22;16305;48.566;8.846;2022-10-29T04:40:01;13.40;99.90
29295;DHT22;16305;48.566;8.846;2022-10-29T04:42:27;13.40;99.90
29295;DHT22;16305;48.566;8.846;2022-10-29T04:44:53;13.40;99.90
29295;DHT22;16305;48.566;8.846;2022-10-29T04:47:18;13.30;99.90
29295;DHT22;16305;48.566;8.846;2022-10-29T04:49:44;13.40;99.90
29295;DHT22;16305;48.566;8.846;2022-10-29T04:52:09;13.40;99.90
29295;DHT22;16305;48.566;8.846;2022-10-29T04:54:35;13.50;99.90
29295;DHT22;16305;48.566;8.846;2022-10-29T04:57:00;13.50;99.90
29295;DHT22;16305;48.566;8.846;2022-10-29T04:59:26;13.50;99.90
29295;DHT22;16305;48.566;8.846;2022-10-29T05:01:51;13.40;99.90
29295;DHT22;16305;48.566;8.846;2022-10-29T05:04:17;13.40;99.90
29295;DHT22;16305;48.566;8.846;2022-10-29T05:06:42;13.40;99.90
29295;DHT22;16305;48.566;8.846;2022-10-29T05:09:08;13.40;99.90
29295;DHT22;16305;48.566;8.846;2022-10-29T05:11:33;13.30;99.90
29295;DHT22;16305;48.566;8.846;2022-10-29T05:13:59;13.30;99.90
29295;DHT22;16305;48.566;8.846;2022-10-29T05:16:24;13.30;99.90
29295;DHT22;16305;48.566;8.846;2022-10-29T05:18:50;13.30;99.90
29295;DHT22;16305;48.566;8.846;2022-10-29T05:21:15;13.30;99.90
29295;DHT22;16305;48.566;8.846;2022-10-29T05:23:41;13.30;99.90
29295;DHT22;16305;48.566;8.846;2022-10-29T05:26:06;13.20;99.90
29295;DHT22;16305;48.566;8.846;2022-10-29T05:28:32;13.20;99.90
29295;DHT22;16305;48.566;8.846;2022-10-29T05:30:59;13.20;99.90
29295;DHT22;16305;48.566;8.846;2022-10-29T05:33:26;13.00;99.90
29295;DHT22;16305;48.566;8.846;2022-10-29T05:35:52;12.80;99.90
29295;DHT22;16305;48.566;8.846;2022-10-29T05:38:18;12.60;99.90
29295;DHT22;16305;48.566;8.846;2022-10-29T05:40:44;12.50;99.90
29295;DHT22;16305;48.566;8.846;2022-10-29T05:43:13;12.80;99.90
29295;DHT22;16305;48.566;8.846;2022-10-29T05:45:40;13.00;99.90
29295;DHT22;16305;48.566;8.846;2022-10-29T05:48:07;13.10;99.90
29295;DHT22;16305;48.566;8.846;2022-10-29T05:50:33;13.20;99.90
29295;DHT22;16305;48.566;8.846;2022-10-29T05:53:03;13.20;99.90
29295;DHT22;16305;48.566;8.846;2022-10-29T05:55:30;13.40;99.90
29295;DHT22;16305;48.566;8.846;2022-10-29T05:58:00;13.40;99.90
29295;DHT22;16305;48.566;8.846;2022-10-29T06:00:28;13.50;99.90
29295;DHT22;16305;48.566;8.846;2022-10-29T06:02:54;13.50;99.90
29295;DHT22;16305;48.566;8.846;2022-10-29T06:05:20;13.50;99.90
29295;DHT22;16305;48.566;8.846;2022-10-29T06:07:47;13.70;99.90
29295;DHT22;16305;48.566;8.846;2022-10-29T06:10:17;13.70;99.90
29295;DHT22;16305;48.566;8.846;2022-10-29T06:12:42;13.70;99.90
29295;DHT22;16305;48.566;8.846;2022-10-29T06:15:08;13.70;99.90
29295;DHT22;16305;48.566;8.846;2022-10-29T06:17:33;13.70;99.90
29295;DHT22;16305;48.566;8.846;2022-10-29T06:20:04;13.70;99.90
29295;DHT22;16305;48.566;8.846;2022-10-29T06:22:30;13.70;99.90
29295;DHT22;16305;48.566;8.846;2022-10-29T06:24:55;13.60;99.90
29295;DHT22;16305;48.566;8.846;2022-10-29T06:27:21;13.50;99.90
29295;DHT22;16305;48.566;8.846;2022-10-29T06:29:46;13.50;99.90
29295;DHT22;16305;48.566;8.846;2022-10-29T06:32:12;13.40;99.90
29295;DHT22;16305;48.566;8.846;2022-10-29T06:34:37;13.40;99.90
29295;DHT22;16305;48.566;8.846;2022-10-29T06:37:03;13.50;99.90
29295;DHT22;16305;48.566;8.846;2022-10-29T06:39:28;13.40;99.90
29295;DHT22;16305;48.566;8.846;2022-10-29T06:41:54;13.40;99.90
29295;DHT22;16305;48.566;8.846;2022-10-29T06:44:19;13.40;99.90
29295;DHT22;16305;48.566;8.846;2022-10-29T06:46:45;13.40;99.90
29295;DHT22;16305;48.566;8.846;2022-10-29T06:49:10;13.40;99.90
29295;DHT22;16305;48.566;8.846;2022-10-29T06:51:36;13.40;99.90
29295;DHT22;16305;48.566;8.846;2022-10-29T06:54:01;13.50;99.90
29295;DHT22;16305;48.566;8.846;2022-10-29T06:56:27;13.50;99.90
29295;DHT22;16305;48.566;8.846;2022-10-29T06:58:53;13.30;99.90
29295;DHT22;16305;48.566;8.846;2022-10-29T07:01:18;13.30;99.90
29295;DHT22;16305;48.566;8.846;2022-10-29T07:03:44;13.30;99.90
29295;DHT22;16305;48.566;8.846;2022-10-29T07:06:09;13.20;99.90
29295;DHT22;16305;48.566;8.846;2022-10-29T07:08:35;13.20;99.90
29295;DHT22;16305;48.566;8.846;2022-10-29T07:11:00;13.20;99.90
29295;DHT22;16305;48.566;8.846;2022-10-29T07:13:27;13.30;99.90
29295;DHT22;16305;48.566;8.846;2022-10-29T07:15:52;13.30;99.90
29295;DHT22;16305;48.566;8.846;2022-10-29T07:18:18;13.50;99.90
29295;DHT22;16305;48.566;8.846;2022-10-29T07:20:44;13.60;99.90
29295;DHT22;16305;48.566;8.846;2022-10-29T07:23:10;13.70;99.90
29295;DHT22;16305;48.566;8.846;2022-10-29T07:25:37;13.80;99.90
29295;DHT22;16305;48.566;8.846;2022-10-29T07:28:11;13.90;99.90
29295;DHT22;16305;48.566;8.846;2022-10-29T07:30:37;13.90;99.90
29295;DHT22;16305;48.566;8.846;2022-10-29T07:33:03;14.00;99.90
29295;DHT22;16305;48.566;8.846;2022-10-29T07:35:29;14.00;99.90
29295;DHT22;16305;48.566;8.846;2022-10-29T07:37:58;14.20;99.90
29295;DHT22;16305;48.566;8.846;2022-10-29T07:40:24;14.30;99.90
29295;DHT22;16305;48.566;8.846;2022-10-29T07:42:53;14.40;99.90
29295;DHT22;16305;48.566;8.846;2022-10-29T07:45:19;14.50;99.90
29295;DHT22;16305;48.566;8.846;2022-10-29T07:47:45;14.60;99.90
29295;DHT22;16305;48.566;8.846;2022-10-29T07:50:10;14.70;99.90
29295;DHT22;16305;48.566;8.846;2022-10-29T07:52:37;14.70;99.90
29295;DHT22;16305;48.566;8.846;2022-10-29T07:55:03;14.80;99.90
29295;DHT22;16305;48.566;8.846;2022-10-29T07:57:29;14.90;99.90
29295;DHT22;16305;48.566;8.846;2022-10-29T07:59:55;14.80;99.90
29295;DHT22;16305;48.566;8.846;2022-10-29T08:02:20;14.90;99.90
29295;DHT22;16305;48.566;8.846;2022-10-29T08:04:46;15.00;99.90
29295;DHT22;16305;48.566;8.846;2022-10-29T08:07:11;15.20;99.90
29295;DHT22;16305;48.566;8.846;2022-10-29T08:09:37;15.40;99.90
29295;DHT22;16305;48.566;8.846;2022-10-29T08:12:02;15.60;99.90
29295;DHT22;16305;48.566;8.846;2022-10-29T08:14:29;15.80;99.90
29295;DHT22;16305;48.566;8.846;2022-10-29T08:16:55;15.90;99.90
29295;DHT22;16305;48.566;8.846;2022-10-29T08:19:21;16.10;99.90
29295;DHT22;16305;48.566;8.846;2022-10-29T08:21:47;16.20;99.90
29295;DHT22;16305;48.566;8.846;2022-10-29T08:24:12;16.30;99.90
29295;DHT22;16305;48.566;8.846;2022-10-29T08:26:38;16.50;99.90
29295;DHT22;16305;48.566;8.846;2022-10-29T08:29:03;16.60;99.90
29295;DHT22;16305;48.566;8.846;2022-10-29T08:31:29;16.60;99.90
29295;DHT22;16305;48.566;8.846;2022-10-29T08:33:55;16.70;99.90
29295;DHT22;16305;48.566;8.846;2022-10-29T08:36:20;16.80;99.90
29295;DHT22;16305;48.566;8.846;2022-10-29T08:38:46;16.80;99.90
29295;DHT22;16305;48.566;8.846;2022-10-29T08:47:22;17.10;99.90
29295;DHT22;16305;48.566;8.846;2022-10-29T08:52:32;16.70;99.90
29295;DHT22;16305;48.566;8.846;2022-10-29T08:57:25;16.50;99.90
29295;DHT22;16305;48.566;8.846;2022-10-29T09:00:03;16.50;99.90
29295;DHT22;16305;48.566;8.846;2022-10-29T09:02:30;16.70;99.90
29295;DHT22;16305;48.566;8.846;2022-10-29T09:04:56;16.70;99.90
29295;DHT22;16305;48.566;8.846;2022-10-29T09:10:16;16.90;99.90
29295;DHT22;16305;48.566;8.846;2022-10-29T09:15:50;16.90;99.90
29295;DHT22;16305;48.566;8.846;2022-10-29T09:21:10;17.50;99.90
29295;DHT22;16305;48.566;8.846;2022-10-29T09:24:12;17.70;99.90
29295;DHT22;16305;48.566;8.846;2022-10-29T09:26:54;18.00;99.90
29295;DHT22;16305;48.566;8.846;2022-10-29T09:32:23;18.30;99.90
29295;DHT22;16305;48.566;8.846;2022-10-29T09:35:11;18.40;99.90
29295;DHT22;16305;48.566;8.846;2022-10-29T09:37:48;18.50;99.90
29295;DHT22;16305;48.566;8.846;2022-10-29T09:40:38;18.70;99.90
29295;DHT22;16305;48.566;8.846;2022-10-29T09:51:50;19.20;99.90
29295;DHT22;16305;48.566;8.846;2022-10-29T09:54:17;19.30;99.90
29295;DHT22;16305;48.566;8.846;2022-10-29T09:56:44;19.50;99.90
29295;DHT22;16305;48.566;8.846;2022-10-29T09:59:37;19.50;99.90
29295;DHT22;16305;48.566;8.846;2022-10-29T10:02:23;19.50;99.90
29295;DHT22;16305;48.566;8.846;2022-10-29T10:04:54;19.80;99.90
29295;DHT22;16305;48.566;8.846;2022-10-29T10:07:21;19.80;99.90
29295;DHT22;16305;48.566;8.846;2022-10-29T10:09:50;19.90;99.90
29295;DHT22;16305;48.566;8.846;2022-10-29T10:12:18;19.90;99.90
29295;DHT22;16305;48.566;8.846;2022-10-29T10:14:45;20.00;99.90
29295;DHT22;16305;48.566;8.846;2022-10-29T10:17:11;20.10;99.90
29295;DHT22;16305;48.566;8.846;2022-10-29T10:19:42;20.10;99.90
29295;DHT22;16305;48.566;8.846;2022-10-29T10:22:18;20.10;99.90
29295;DHT22;16305;48.566;8.846;2022-10-29T10:24:44;20.30;99.90
29295;DHT22;16305;48.566;8.846;2022-10-29T10:30:05;20.60;99.90
29295;DHT22;16305;48.566;8.846;2022-10-29T10:32:32;20.60;99.90
29295;DHT22;16305;48.566;8.846;2022-10-29T10:34:57;20.60;99.90
29295;DHT22;16305;48.566;8.846;2022-10-29T10:37:23;20.70;99.90
29295;DHT22;16305;48.566;8.846;2022-10-29T10:39:53;20.80;99.90
29295;DHT22;16305;48.566;8.846;2022-10-29T10:42:27;20.90;99.90
29295;DHT22;16305;48.566;8.846;2022-10-29T10:45:23;20.90;99.90
29295;DHT22;16305;48.566;8.846;2022-10-29T10:47:51;20.90;99.90
29295;DHT22;16305;48.566;8.846;2022-10-29T10:52:49;21.10;99.90
29295;DHT22;16305;48.566;8.846;2022-10-29T10:55:36;21.30;99.90
29295;DHT22;16305;48.566;8.846;2022-10-29T10:58:16;21.50;99.90
29295;DHT22;16305;48.566;8.846;2022-10-29T11:00:49;21.70;99.90
29295;DHT22;16305;48.566;8.846;2022-10-29T11:04:01;21.70;99.90
29295;DHT22;16305;48.566;8.846;2022-10-29T11:06:44;21.70;99.90
29295;DHT22;16305;48.566;8.846;2022-10-29T11:09:27;21.80;99.90
29295;DHT22;16305;48.566;8.846;2022-10-29T11:12:09;22.00;99.90
29295;DHT22;16305;48.566;8.846;2022-10-29T11:14:50;22.10;99.90
29295;DHT22;16305;48.566;8.846;2022-10-29T11:18:10;22.20;99.90
29295;DHT22;16305;48.566;8.846;2022-10-29T11:20:22;22.60;99.90
29295;DHT22;16305;48.566;8.846;2022-10-29T11:25:49;24.80;99.90
29295;DHT22;16305;48.566;8.846;2022-10-29T11:28:25;25.40;99.90
29295;DHT22;16305;48.566;8.846;2022-10-29T11:31:19;26.40;99.90
29295;DHT22;16305;48.566;8.846;2022-10-29T11:36:49;28.40;99.90
29295;DHT22;16305;48.566;8.846;2022-10-29T11:39:30;28.00;99.90
29295;DHT22;16305;48.566;8.846;2022-10-29T11:41:58;26.80;99.90
29295;DHT22;16305;48.566;8.846;2022-10-29T11:44:24;26.80;99.90
29295;DHT22;16305;48.566;8.846;2022-10-29T11:52:45;27.50;99.90
29295;DHT22;16305;48.566;8.846;2022-10-29T11:55:43;27.10;99.90
29295;DHT22;16305;48.566;8.846;2022-10-29T12:14:06;27.40;99.90
29295;DHT22;16305;48.566;8.846;2022-10-29T12:22:46;26.70;99.90
29295;DHT22;16305;48.566;8.846;2022-10-29T12:25:35;26.30;99.90
29295;DHT22;16305;48.566;8.846;2022-10-29T12:28:17;25.90;99.90
29295;DHT22;16305;48.566;8.846;2022-10-29T12:31:12;26.00;99.90
29295;DHT22;16305;48.566;8.846;2022-10-29T12:36:29;27.30;99.90
29295;DHT22;16305;48.566;8.846;2022-10-29T12:38:57;27.10;99.90
29295;DHT22;16305;48.566;8.846;2022-10-29T12:41:43;27.10;99.90
29295;DHT22;16305;48.566;8.846;2022-10-29T12:44:23;27.80;99.90
29295;DHT22;16305;48.566;8.846;2022-10-29T12:47:02;27.80;99.90
29295;DHT22;16305;48.566;8.846;2022-10-29T12:52:42;27.30;99.90
29295;DHT22;16305;48.566;8.846;2022-10-29T12:55:13;28.10;99.90
29295;DHT22;16305;48.566;8.846;2022-10-29T12:57:40;28.50;99.90
29295;DHT22;16305;48.566;8.846;2022-10-29T13:02:50;28.10;99.90
29295;DHT22;16305;48.566;8.846;2022-10-29T13:21:04;29.10;99.90
29295;DHT22;16305;48.566;8.846;2022-10-29T13:23:34;30.10;99.90
29295;DHT22;16305;48.566;8.846;2022-10-29T13:26:05;31.20;99.90
29295;DHT22;16305;48.566;8.846;2022-10-29T13:41:19;33.80;99.90
29295;DHT22;16305;48.566;8.846;2022-10-29T13:46:45;33.60;99.90
29295;DHT22;16305;48.566;8.846;2022-10-29T13:49:25;33.40;99.90
29295;DHT22;16305;48.566;8.846;2022-10-29T13:54:49;33.10;99.90
29295;DHT22;16305;48.566;8.846;2022-10-29T14:16:07;29.60;99.90
29295;DHT22;16305;48.566;8.846;2022-10-29T14:18:40;29.30;99.90
29295;DHT22;16305;48.566;8.846;2022-10-29T14:21:20;28.80;99.90
29295;DHT22;16305;48.566;8.846;2022-10-29T14:23:59;28.80;99.90
29295;DHT22;16305;48.566;8.846;2022-10-29T14:26:26;28.80;99.90
29295;DHT22;16305;48.566;8.846;2022-10-29T14:28:52;28.60;99.90
29295;DHT22;16305;48.566;8.846;2022-10-29T14:31:27;28.30;99.90
29295;DHT22;16305;48.566;8.846;2022-10-29T14:33:55;28.00;99.90
29295;DHT22;16305;48.566;8.846;2022-10-29T14:39:10;27.10;99.90
29295;DHT22;16305;48.566;8.846;2022-10-29T14:41:38;26.70;99.90
29295;DHT22;16305;48.566;8.846;2022-10-29T14:44:08;26.20;99.90
29295;DHT22;16305;48.566;8.846;2022-10-29T14:46:36;25.90;99.90
29295;DHT22;16305;48.566;8.846;2022-10-29T14:49:04;25.80;99.90
29295;DHT22;16305;48.566;8.846;2022-10-29T14:51:46;25.90;99.90
29295;DHT22;16305;48.566;8.846;2022-10-29T14:54:38;25.50;99.90
29295;DHT22;16305;48.566;8.846;2022-10-29T14:57:13;25.40;99.90
29295;DHT22;16305;48.566;8.846;2022-10-29T14:59:56;24.90;99.90
29295;DHT22;16305;48.566;8.846;2022-10-29T15:02:23;24.20;99.90
29295;DHT22;16305;48.566;8.846;2022-10-29T15:04:56;23.90;99.90
29295;DHT22;16305;48.566;8.846;2022-10-29T15:09:49;23.20;99.90
29295;DHT22;16305;48.566;8.846;2022-10-29T15:12:24;23.00;99.90
29295;DHT22;16305;48.566;8.846;2022-10-29T15:14:52;22.80;99.90
29295;DHT22;16305;48.566;8.846;2022-10-29T15:17:21;22.60;99.90
29295;DHT22;16305;48.566;8.846;2022-10-29T15:19:50;22.50;99.90
29295;DHT22;16305;48.566;8.846;2022-10-29T15:22:23;22.40;99.90
29295;DHT22;16305;48.566;8.846;2022-10-29T15:24:51;22.20;99.90
29295;DHT22;16305;48.566;8.846;2022-10-29T15:27:18;22.20;99.90
29295;DHT22;16305;48.566;8.846;2022-10-29T15:29:45;21.60;99.90
29295;DHT22;16305;48.566;8.846;2022-10-29T15:32:15;21.40;99.90
29295;DHT22;16305;48.566;8.846;2022-10-29T15:34:56;21.40;99.90
29295;DHT22;16305;48.566;8.846;2022-10-29T15:37:23;21.30;99.90
29295;DHT22;16305;48.566;8.846;2022-10-29T15:42:33;21.20;99.90
29295;DHT22;16305;48.566;8.846;2022-10-29T15:47:32;20.80;99.90
29295;DHT22;16305;48.566;8.846;2022-10-29T15:49:57;20.70;99.90
29295;DHT22;16305;48.566;8.846;2022-10-29T15:52:30;20.70;99.90
29295;DHT22;16305;48.566;8.846;2022-10-29T15:54:59;20.50;99.90
29295;DHT22;16305;48.566;8.846;2022-10-29T15:57:25;20.50;99.90
29295;DHT22;16305;48.566;8.846;2022-10-29T15:59:51;20.50;99.90
29295;DHT22;16305;48.566;8.846;2022-10-29T16:02:22;20.40;99.90
29295;DHT22;16305;48.566;8.846;2022-10-29T16:04:49;20.40;99.90
29295;DHT22;16305;48.566;8.846;2022-10-29T16:07:15;20.20;99.90
29295;DHT22;16305;48.566;8.846;2022-10-29T16:09:47;20.30;99.90
29295;DHT22;16305;48.566;8.846;2022-10-29T16:12:13;20.20;99.90
29295;DHT22;16305;48.566;8.846;2022-10-29T16:14:39;20.20;99.90
29295;DHT22;16305;48.566;8.846;2022-10-29T16:17:18;20.10;99.90
29295;DHT22;16305;48.566;8.846;2022-10-29T16:19:44;20.10;99.90
29295;DHT22;16305;48.566;8.846;2022-10-29T16:22:27;20.00;99.90
29295;DHT22;16305;48.566;8.846;2022-10-29T16:24:53;20.10;99.90
29295;DHT22;16305;48.566;8.846;2022-10-29T16:27:19;20.10;99.90
29295;DHT22;16305;48.566;8.846;2022-10-29T16:29:44;20.00;99.90
29295;DHT22;16305;48.566;8.846;2022-10-29T16:32:15;20.00;99.90
29295;DHT22;16305;48.566;8.846;2022-10-29T16:34:41;19.90;99.90
29295;DHT22;16305;48.566;8.846;2022-10-29T16:37:12;19.90;99.90
29295;DHT22;16305;48.566;8.846;2022-10-29T16:39:38;19.70;99.90
29295;DHT22;16305;48.566;8.846;2022-10-29T16:42:04;19.60;99.90
29295;DHT22;16305;48.566;8.846;2022-10-29T16:44:30;19.50;99.90
29295;DHT22;16305;48.566;8.846;2022-10-29T16:46:56;19.40;99.90
29295;DHT22;16305;48.566;8.846;2022-10-29T16:49:21;19.50;99.90
29295;DHT22;16305;48.566;8.846;2022-10-29T16:51:47;19.40;99.90
29295;DHT22;16305;48.566;8.846;2022-10-29T16:54:12;19.40;99.90
29295;DHT22;16305;48.566;8.846;2022-10-29T16:56:38;19.30;99.90
29295;DHT22;16305;48.566;8.846;2022-10-29T16:59:04;19.40;99.90
29295;DHT22;16305;48.566;8.846;2022-10-29T17:01:29;19.30;99.90
29295;DHT22;16305;48.566;8.846;2022-10-29T17:03:55;19.30;99.90
29295;DHT22;16305;48.566;8.846;2022-10-29T17:06:20;19.30;99.90
29295;DHT22;16305;48.566;8.846;2022-10-29T17:08:46;19.20;99.90
29295;DHT22;16305;48.566;8.846;2022-10-29T17:11:11;19.20;99.90
29295;DHT22;16305;48.566;8.846;2022-10-29T17:13:37;19.10;99.90
29295;DHT22;16305;48.566;8.846;2022-10-29T17:16:11;19.00;99.90
29295;DHT22;16305;48.566;8.846;2022-10-29T17:18:39;18.90;99.90
29295;DHT22;16305;48.566;8.846;2022-10-29T17:21:05;18.70;99.90
29295;DHT22;16305;48.566;8.846;2022-10-29T17:23:31;18.60;99.90
29295;DHT22;16305;48.566;8.846;2022-10-29T17:25:57;18.60;99.90
29295;DHT22;16305;48.566;8.846;2022-10-29T17:28:24;18.60;99.90
29295;DHT22;16305;48.566;8.846;2022-10-29T17:30:50;18.60;99.90
29295;DHT22;16305;48.566;8.846;2022-10-29T17:33:16;18.60;99.90
29295;DHT22;16305;48.566;8.846;2022-10-29T17:35:42;18.60;99.90
29295;DHT22;16305;48.566;8.846;2022-10-29T17:38:08;18.70;99.90
29295;DHT22;16305;48.566;8.846;2022-10-29T17:40:34;18.70;99.90
29295;DHT22;16305;48.566;8.846;2022-10-29T17:43:00;18.70;99.90
29295;DHT22;16305;48.566;8.846;2022-10-29T17:45:25;18.60;99.90
29295;DHT22;16305;48.566;8.846;2022-10-29T17:47:55;18.50;99.90
29295;DHT22;16305;48.566;8.846;2022-10-29T17:50:21;18.50;99.90
29295;DHT22;16305;48.566;8.846;2022-10-29T17:52:47;18.50;99.90
29295;DHT22;16305;48.566;8.846;2022-10-29T17:55:12;18.50;99.90
29295;DHT22;16305;48.566;8.846;2022-10-29T17:57:38;18.50;99.90
29295;DHT22;16305;48.566;8.846;2022-10-29T18:00:04;18.50;99.90
29295;DHT22;16305;48.566;8.846;2022-10-29T18:02:29;18.50;99.90
29295;DHT22;16305;48.566;8.846;2022-10-29T18:04:55;18.50;99.90
29295;DHT22;16305;48.566;8.846;2022-10-29T18:07:20;18.50;99.90
29295;DHT22;16305;48.566;8.846;2022-10-29T18:09:46;18.40;99.90
29295;DHT22;16305;48.566;8.846;2022-10-29T18:12:12;18.40;99.90
29295;DHT22;16305;48.566;8.846;2022-10-29T18:14:37;18.60;99.90
29295;DHT22;16305;48.566;8.846;2022-10-29T18:17:03;18.70;99.90
29295;DHT22;16305;48.566;8.846;2022-10-29T18:19:28;18.70;99.90
29295;DHT22;16305;48.566;8.846;2022-10-29T18:21:54;18.80;99.90
29295;DHT22;16305;48.566;8.846;2022-10-29T18:24:19;18.80;99.90
29295;DHT22;16305;48.566;8.846;2022-10-29T18:26:49;18.80;99.90
29295;DHT22;16305;48.566;8.846;2022-10-29T18:29:15;18.80;99.90
29295;DHT22;16305;48.566;8.846;2022-10-29T18:31:40;18.80;99.90
29295;DHT22;16305;48.566;8.846;2022-10-29T18:34:10;18.90;99.90
29295;DHT22;16305;48.566;8.846;2022-10-29T18:36:35;18.80;99.90
29295;DHT22;16305;48.566;8.846;2022-10-29T18:39:02;18.80;99.90